Terminal Aerodrome Forecast
Issued by NWS Newport/Morehead City, NC

Home | Current Version | Previous Version | Text Only | Print | Product List | Glossary On
Versions: 1 2 3 4 5 6 7 8 9 10 11 12 13 14 15 16 17 18 19 20 21 22
000
FTUS42 KMHX 211144 AAC
TAFEWN
TAF AMD
KEWN 211144Z 2112/2212 09004KT 1SM BR OVC003
     FM211500 11004KT 3SM BR BKN007
     FM211700 12004KT P6SM BKN007
     FM212100 13005KT 3SM -SHRA BKN007
     FM220400 19005KT 3SM BR OVC003
     FM220600 22005KT 2SM BR OVC003 WS020/20035KT=

USA.gov is the U.S. government's official web portal to all federal, state and local government web resources and services.